sensor_id;sensor_type;location;lat;lon;timestamp;pressure;altitude;pressure_sealevel;temperature;humidity
39051;BME280;24805;55.852;37.644;2023-05-08T00:03:37;100816.63;;;3.99;44.92
39051;BME280;24805;55.852;37.644;2023-05-08T00:08:40;100821.97;;;3.98;45.26
39051;BME280;24805;55.852;37.644;2023-05-08T00:13:42;100804.41;;;3.86;45.45
39051;BME280;24805;55.852;37.644;2023-05-08T00:18:45;100825.19;;;3.89;45.68
39051;BME280;24805;55.852;37.644;2023-05-08T00:23:47;100829.25;;;3.80;45.58
39051;BME280;24805;55.852;37.644;2023-05-08T00:28:49;100835.78;;;3.74;46.07
39051;BME280;24805;55.852;37.644;2023-05-08T00:33:51;100831.97;;;3.66;46.29
39051;BME280;24805;55.852;37.644;2023-05-08T00:38:54;100836.69;;;3.61;46.91
39051;BME280;24805;55.852;37.644;2023-05-08T00:43:56;100845.72;;;3.57;46.86
39051;BME280;24805;55.852;37.644;2023-05-08T00:48:58;100843.50;;;3.51;47.44
39051;BME280;24805;55.852;37.644;2023-05-08T00:54:01;100842.94;;;3.45;47.35
39051;BME280;24805;55.852;37.644;2023-05-08T00:59:08;100832.03;;;3.39;48.16
39051;BME280;24805;55.852;37.644;2023-05-08T01:04:11;100848.38;;;3.42;48.50
39051;BME280;24805;55.852;37.644;2023-05-08T01:09:13;100855.63;;;3.39;48.42
39051;BME280;24805;55.852;37.644;2023-05-08T01:14:19;100854.06;;;3.36;48.63
39051;BME280;24805;55.852;37.644;2023-05-08T01:35:48;100859.44;;;3.47;47.06
39051;BME280;24805;55.852;37.644;2023-05-08T01:41:08;100865.31;;;3.51;47.71
39051;BME280;24805;55.852;37.644;2023-05-08T01:46:19;100868.78;;;3.52;48.00
39051;BME280;24805;55.852;37.644;2023-05-08T01:51:26;100877.78;;;3.47;47.83
39051;BME280;24805;55.852;37.644;2023-05-08T01:56:30;100872.44;;;3.49;47.94
39051;BME280;24805;55.852;37.644;2023-05-08T02:01:33;100874.03;;;3.52;47.30
39051;BME280;24805;55.852;37.644;2023-05-08T02:06:37;100879.59;;;3.60;47.48
39051;BME280;24805;55.852;37.644;2023-05-08T02:11:41;100882.88;;;3.63;47.74
39051;BME280;24805;55.852;37.644;2023-05-08T02:16:46;100870.78;;;3.61;47.61
39051;BME280;24805;55.852;37.644;2023-05-08T02:21:49;100891.84;;;3.73;47.64
39051;BME280;24805;55.852;37.644;2023-05-08T02:26:54;100894.78;;;3.81;47.42
39051;BME280;24805;55.852;37.644;2023-05-08T02:31:59;100894.94;;;3.93;47.76
39051;BME280;24805;55.852;37.644;2023-05-08T02:37:03;100892.97;;;3.96;47.53
39051;BME280;24805;55.852;37.644;2023-05-08T02:42:06;100902.94;;;4.04;47.28
39051;BME280;24805;55.852;37.644;2023-05-08T02:47:36;100907.41;;;4.29;46.36
39051;BME280;24805;55.852;37.644;2023-05-08T02:52:47;100916.84;;;4.31;46.99
39051;BME280;24805;55.852;37.644;2023-05-08T02:58:01;100925.47;;;4.33;46.74
39051;BME280;24805;55.852;37.644;2023-05-08T03:03:25;100928.13;;;4.59;46.03
39051;BME280;24805;55.852;37.644;2023-05-08T03:08:31;100931.28;;;4.51;46.53
39051;BME280;24805;55.852;37.644;2023-05-08T03:13:37;100935.56;;;4.65;46.15
39051;BME280;24805;55.852;37.644;2023-05-08T03:18:50;100942.84;;;4.74;45.68
39051;BME280;24805;55.852;37.644;2023-05-08T03:23:53;100948.28;;;4.83;45.34
39051;BME280;24805;55.852;37.644;2023-05-08T03:28:58;100941.66;;;4.91;45.59
39051;BME280;24805;55.852;37.644;2023-05-08T03:34:05;100945.00;;;5.05;45.24
39051;BME280;24805;55.852;37.644;2023-05-08T03:39:09;100948.59;;;5.17;45.14
39051;BME280;24805;55.852;37.644;2023-05-08T03:44:12;100956.44;;;5.30;44.71
39051;BME280;24805;55.852;37.644;2023-05-08T03:49:14;100958.44;;;5.39;44.58
39051;BME280;24805;55.852;37.644;2023-05-08T03:54:19;100962.69;;;5.52;44.22
39051;BME280;24805;55.852;37.644;2023-05-08T04:04:54;100963.59;;;5.88;43.80
39051;BME280;24805;55.852;37.644;2023-05-08T04:10:12;100959.44;;;6.09;43.45
39051;BME280;24805;55.852;37.644;2023-05-08T04:15:19;100962.47;;;6.16;43.03
39051;BME280;24805;55.852;37.644;2023-05-08T04:20:25;100962.13;;;6.32;43.25
39051;BME280;24805;55.852;37.644;2023-05-08T04:25:29;100962.16;;;6.43;42.45
39051;BME280;24805;55.852;37.644;2023-05-08T04:30:34;100965.47;;;6.57;42.70
39051;BME280;24805;55.852;37.644;2023-05-08T04:35:37;100963.31;;;6.74;42.23
39051;BME280;24805;55.852;37.644;2023-05-08T04:40:39;100963.81;;;6.90;41.84
39051;BME280;24805;55.852;37.644;2023-05-08T04:45:43;100966.09;;;7.06;41.81
39051;BME280;24805;55.852;37.644;2023-05-08T04:50:46;100964.75;;;7.22;41.25
39051;BME280;24805;55.852;37.644;2023-05-08T04:55:48;100969.53;;;7.40;40.99
39051;BME280;24805;55.852;37.644;2023-05-08T05:00:50;100966.53;;;7.55;40.51
39051;BME280;24805;55.852;37.644;2023-05-08T05:05:57;100974.97;;;7.81;40.47
39051;BME280;24805;55.852;37.644;2023-05-08T05:11:00;100978.91;;;7.98;39.82
39051;BME280;24805;55.852;37.644;2023-05-08T05:16:02;100980.97;;;8.58;38.55
39051;BME280;24805;55.852;37.644;2023-05-08T05:21:05;100984.81;;;10.05;37.62
39051;BME280;24805;55.852;37.644;2023-05-08T05:26:08;100983.75;;;12.12;34.33
39051;BME280;24805;55.852;37.644;2023-05-08T05:31:10;100987.75;;;13.71;31.50
39051;BME280;24805;55.852;37.644;2023-05-08T05:36:12;100985.91;;;15.26;29.25
39051;BME280;24805;55.852;37.644;2023-05-08T05:41:14;100981.53;;;16.72;27.43
39051;BME280;24805;55.852;37.644;2023-05-08T05:46:17;100986.63;;;17.40;25.79
39051;BME280;24805;55.852;37.644;2023-05-08T05:51:20;100992.06;;;18.12;24.73
39051;BME280;24805;55.852;37.644;2023-05-08T05:56:22;100991.13;;;18.90;22.89
39051;BME280;24805;55.852;37.644;2023-05-08T06:01:24;100986.44;;;19.40;22.17
39051;BME280;24805;55.852;37.644;2023-05-08T06:06:30;100983.69;;;20.69;21.20
39051;BME280;24805;55.852;37.644;2023-05-08T06:11:32;100976.75;;;21.19;20.03
39051;BME280;24805;55.852;37.644;2023-05-08T06:16:34;100984.06;;;19.58;19.48
39051;BME280;24805;55.852;37.644;2023-05-08T06:21:37;100989.31;;;18.98;21.30
39051;BME280;24805;55.852;37.644;2023-05-08T06:26:40;100983.75;;;19.81;21.15
39051;BME280;24805;55.852;37.644;2023-05-08T06:31:42;100989.69;;;20.84;19.63
39051;BME280;24805;55.852;37.644;2023-05-08T06:36:44;100987.22;;;20.76;18.69
39051;BME280;24805;55.852;37.644;2023-05-08T06:41:47;100986.16;;;20.83;18.90
39051;BME280;24805;55.852;37.644;2023-05-08T06:46:58;100983.69;;;20.49;18.99
39051;BME280;24805;55.852;37.644;2023-05-08T06:52:00;100975.00;;;19.66;19.75
39051;BME280;24805;55.852;37.644;2023-05-08T06:57:02;100975.53;;;21.79;18.90
39051;BME280;24805;55.852;37.644;2023-05-08T07:02:05;100971.44;;;24.22;16.27
39051;BME280;24805;55.852;37.644;2023-05-08T07:07:07;100967.31;;;24.73;15.11
39051;BME280;24805;55.852;37.644;2023-05-08T07:12:09;100970.84;;;26.00;14.60
39051;BME280;24805;55.852;37.644;2023-05-08T07:17:11;100965.66;;;26.94;13.68
39051;BME280;24805;55.852;37.644;2023-05-08T07:22:13;100964.72;;;27.49;13.05
39051;BME280;24805;55.852;37.644;2023-05-08T07:27:16;100960.16;;;28.62;11.77
39051;BME280;24805;55.852;37.644;2023-05-08T07:32:18;100951.69;;;27.29;12.24
39051;BME280;24805;55.852;37.644;2023-05-08T07:37:21;100955.84;;;28.34;12.26
39051;BME280;24805;55.852;37.644;2023-05-08T07:42:23;100946.34;;;30.29;11.31
39051;BME280;24805;55.852;37.644;2023-05-08T07:47:25;100951.19;;;30.98;10.49
39051;BME280;24805;55.852;37.644;2023-05-08T07:52:30;100947.44;;;30.23;10.50
39051;BME280;24805;55.852;37.644;2023-05-08T07:57:36;100929.84;;;31.60;10.03
39051;BME280;24805;55.852;37.644;2023-05-08T08:02:39;100926.09;;;33.15;9.20
39051;BME280;24805;55.852;37.644;2023-05-08T08:07:41;100934.84;;;32.65;8.96
39051;BME280;24805;55.852;37.644;2023-05-08T08:12:44;100929.53;;;29.50;10.42
39051;BME280;24805;55.852;37.644;2023-05-08T08:17:46;100928.63;;;25.53;12.43
39051;BME280;24805;55.852;37.644;2023-05-08T08:22:49;100923.00;;;22.38;14.38
39051;BME280;24805;55.852;37.644;2023-05-08T08:27:52;100921.50;;;20.50;16.20
39051;BME280;24805;55.852;37.644;2023-05-08T08:32:54;100921.22;;;20.06;16.99
39051;BME280;24805;55.852;37.644;2023-05-08T08:37:56;100919.53;;;24.37;14.55
39051;BME280;24805;55.852;37.644;2023-05-08T08:42:58;100918.25;;;29.36;11.19
39051;BME280;24805;55.852;37.644;2023-05-08T08:48:02;100920.38;;;30.37;9.85
39051;BME280;24805;55.852;37.644;2023-05-08T08:53:33;100913.78;;;28.67;11.91
39051;BME280;24805;55.852;37.644;2023-05-08T08:58:49;100915.63;;;25.55;12.47
39051;BME280;24805;55.852;37.644;2023-05-08T09:03:52;100913.69;;;23.50;13.85
39051;BME280;24805;55.852;37.644;2023-05-08T09:08:55;100926.00;;;21.92;14.97
39051;BME280;24805;55.852;37.644;2023-05-08T09:13:59;100915.84;;;20.19;16.23
39051;BME280;24805;55.852;37.644;2023-05-08T09:19:02;100921.16;;;18.77;17.41
39051;BME280;24805;55.852;37.644;2023-05-08T09:24:05;100927.16;;;17.87;18.32
39051;BME280;24805;55.852;37.644;2023-05-08T09:29:18;100929.66;;;17.53;19.48
39051;BME280;24805;55.852;37.644;2023-05-08T09:34:24;100920.47;;;17.11;19.57
39051;BME280;24805;55.852;37.644;2023-05-08T09:39:28;100923.06;;;16.75;19.58
39051;BME280;24805;55.852;37.644;2023-05-08T09:50:01;100912.31;;;17.05;19.04
39051;BME280;24805;55.852;37.644;2023-05-08T09:55:08;100915.56;;;17.15;18.93
39051;BME280;24805;55.852;37.644;2023-05-08T10:00:12;100905.75;;;17.07;18.63
39051;BME280;24805;55.852;37.644;2023-05-08T10:05:28;100913.44;;;17.10;18.57
39051;BME280;24805;55.852;37.644;2023-05-08T10:10:33;100909.47;;;16.92;18.87
39051;BME280;24805;55.852;37.644;2023-05-08T10:15:41;100902.88;;;16.79;18.94
39051;BME280;24805;55.852;37.644;2023-05-08T10:20:46;100911.41;;;16.45;19.44
39051;BME280;24805;55.852;37.644;2023-05-08T10:25:55;100890.19;;;16.06;20.00
39051;BME280;24805;55.852;37.644;2023-05-08T10:31:02;100905.94;;;16.01;20.57
39051;BME280;24805;55.852;37.644;2023-05-08T10:36:07;100901.91;;;16.05;20.32
39051;BME280;24805;55.852;37.644;2023-05-08T10:41:11;100898.84;;;16.31;20.28
39051;BME280;24805;55.852;37.644;2023-05-08T10:51:43;100892.38;;;17.43;19.15
39051;BME280;24805;55.852;37.644;2023-05-08T10:56:49;100888.81;;;18.43;18.32
39051;BME280;24805;55.852;37.644;2023-05-08T11:01:51;100878.94;;;20.00;17.11
39051;BME280;24805;55.852;37.644;2023-05-08T11:06:54;100874.00;;;22.28;15.39
39051;BME280;24805;55.852;37.644;2023-05-08T11:12:06;100868.59;;;25.54;13.02
39051;BME280;24805;55.852;37.644;2023-05-08T11:17:09;100864.06;;;28.23;11.54
39051;BME280;24805;55.852;37.644;2023-05-08T11:27:17;100869.13;;;30.47;9.71
39051;BME280;24805;55.852;37.644;2023-05-08T11:32:19;100872.47;;;27.58;11.08
39051;BME280;24805;55.852;37.644;2023-05-08T11:37:22;100867.72;;;24.62;12.46
39051;BME280;24805;55.852;37.644;2023-05-08T11:47:50;100875.91;;;22.46;14.68
39051;BME280;24805;55.852;37.644;2023-05-08T11:53:01;100872.19;;;21.14;15.24
39051;BME280;24805;55.852;37.644;2023-05-08T11:58:11;100875.97;;;21.51;15.31
39051;BME280;24805;55.852;37.644;2023-05-08T12:03:13;100869.88;;;21.94;14.79
39051;BME280;24805;55.852;37.644;2023-05-08T12:08:17;100879.09;;;21.80;14.91
39051;BME280;24805;55.852;37.644;2023-05-08T12:18:26;100864.31;;;20.99;15.37
39051;BME280;24805;55.852;37.644;2023-05-08T12:23:30;100858.63;;;20.70;15.67
39051;BME280;24805;55.852;37.644;2023-05-08T12:28:32;100857.78;;;20.69;15.40
39051;BME280;24805;55.852;37.644;2023-05-08T12:33:35;100856.28;;;20.80;15.31
39051;BME280;24805;55.852;37.644;2023-05-08T12:38:39;100853.88;;;20.52;15.85
39051;BME280;24805;55.852;37.644;2023-05-08T12:43:45;100848.53;;;21.10;15.40
39051;BME280;24805;55.852;37.644;2023-05-08T12:48:47;100840.16;;;21.31;15.55
39051;BME280;24805;55.852;37.644;2023-05-08T12:53:50;100834.91;;;20.91;15.55
39051;BME280;24805;55.852;37.644;2023-05-08T12:58:58;100840.63;;;20.57;16.04
39051;BME280;24805;55.852;37.644;2023-05-08T13:04:00;100837.47;;;19.61;16.78
39051;BME280;24805;55.852;37.644;2023-05-08T13:09:04;100835.13;;;18.84;17.65
39051;BME280;24805;55.852;37.644;2023-05-08T13:14:06;100829.94;;;18.20;17.64
39051;BME280;24805;55.852;37.644;2023-05-08T13:19:09;100827.66;;;17.68;17.95
39051;BME280;24805;55.852;37.644;2023-05-08T13:24:15;100831.28;;;17.24;18.57
39051;BME280;24805;55.852;37.644;2023-05-08T13:29:18;100831.09;;;16.90;18.97
39051;BME280;24805;55.852;37.644;2023-05-08T13:34:22;100827.00;;;16.79;18.98
39051;BME280;24805;55.852;37.644;2023-05-08T13:39:26;100826.56;;;16.75;18.49
39051;BME280;24805;55.852;37.644;2023-05-08T13:44:28;100823.41;;;16.86;18.80
39051;BME280;24805;55.852;37.644;2023-05-08T13:49:30;100824.78;;;16.82;18.60
39051;BME280;24805;55.852;37.644;2023-05-08T13:54:32;100824.44;;;16.85;18.93
39051;BME280;24805;55.852;37.644;2023-05-08T13:59:35;100816.75;;;16.82;18.36
39051;BME280;24805;55.852;37.644;2023-05-08T14:04:37;100817.88;;;16.73;18.42
39051;BME280;24805;55.852;37.644;2023-05-08T14:09:39;100822.88;;;16.76;19.12
39051;BME280;24805;55.852;37.644;2023-05-08T14:14:41;100812.50;;;16.88;19.05
39051;BME280;24805;55.852;37.644;2023-05-08T14:19:43;100814.50;;;17.01;19.50
39051;BME280;24805;55.852;37.644;2023-05-08T14:24:46;100819.03;;;17.00;19.55
39051;BME280;24805;55.852;37.644;2023-05-08T14:29:49;100812.97;;;16.92;19.15
39051;BME280;24805;55.852;37.644;2023-05-08T14:34:51;100821.16;;;16.61;19.66
39051;BME280;24805;55.852;37.644;2023-05-08T14:39:53;100820.63;;;16.50;19.52
39051;BME280;24805;55.852;37.644;2023-05-08T14:44:56;100817.94;;;16.36;19.44
39051;BME280;24805;55.852;37.644;2023-05-08T14:49:59;100812.19;;;16.09;19.61
39051;BME280;24805;55.852;37.644;2023-05-08T14:55:01;100806.13;;;15.78;19.66
39051;BME280;24805;55.852;37.644;2023-05-08T15:00:05;100810.50;;;15.48;20.55
39051;BME280;24805;55.852;37.644;2023-05-08T15:05:08;100814.41;;;15.06;20.67
39051;BME280;24805;55.852;37.644;2023-05-08T15:10:20;100804.41;;;14.69;20.93
39051;BME280;24805;55.852;37.644;2023-05-08T15:15:22;100805.16;;;14.47;21.12
39051;BME280;24805;55.852;37.644;2023-05-08T15:20:24;100804.31;;;14.94;20.42
39051;BME280;24805;55.852;37.644;2023-05-08T15:25:26;100805.66;;;14.26;22.27
39051;BME280;24805;55.852;37.644;2023-05-08T15:30:28;100798.03;;;14.15;22.01
39051;BME280;24805;55.852;37.644;2023-05-08T15:35:30;100802.22;;;14.09;22.61
39051;BME280;24805;55.852;37.644;2023-05-08T15:40:33;100804.88;;;14.18;22.98
39051;BME280;24805;55.852;37.644;2023-05-08T15:45:35;100806.34;;;14.28;22.44
39051;BME280;24805;55.852;37.644;2023-05-08T15:50:37;100803.84;;;14.35;22.92
39051;BME280;24805;55.852;37.644;2023-05-08T15:55:39;100795.47;;;14.93;21.44
39051;BME280;24805;55.852;37.644;2023-05-08T16:00:41;100797.16;;;14.31;22.29
39051;BME280;24805;55.852;37.644;2023-05-08T16:05:46;100793.88;;;14.04;22.62
39051;BME280;24805;55.852;37.644;2023-05-08T16:10:48;100802.56;;;13.82;22.27
39051;BME280;24805;55.852;37.644;2023-05-08T16:15:50;100793.53;;;14.16;21.24
39051;BME280;24805;55.852;37.644;2023-05-08T16:20:53;100802.03;;;13.30;22.56
39051;BME280;24805;55.852;37.644;2023-05-08T16:25:55;100805.91;;;12.93;23.34
39051;BME280;24805;55.852;37.644;2023-05-08T16:30:57;100804.75;;;12.62;23.72
39051;BME280;24805;55.852;37.644;2023-05-08T16:35:59;100799.13;;;12.31;24.81
39051;BME280;24805;55.852;37.644;2023-05-08T16:41:05;100801.25;;;12.01;24.48
39051;BME280;24805;55.852;37.644;2023-05-08T16:46:09;100802.09;;;11.76;24.64
39051;BME280;24805;55.852;37.644;2023-05-08T16:51:12;100812.47;;;11.52;25.32
39051;BME280;24805;55.852;37.644;2023-05-08T16:56:14;100817.25;;;11.30;25.65
39051;BME280;24805;55.852;37.644;2023-05-08T17:01:16;100816.44;;;11.02;25.77
39051;BME280;24805;55.852;37.644;2023-05-08T17:06:18;100818.22;;;10.84;26.73
39051;BME280;24805;55.852;37.644;2023-05-08T17:11:21;100820.53;;;10.69;26.82
39051;BME280;24805;55.852;37.644;2023-05-08T17:16:23;100820.03;;;10.56;26.66
39051;BME280;24805;55.852;37.644;2023-05-08T17:21:25;100823.16;;;10.42;26.33
39051;BME280;24805;55.852;37.644;2023-05-08T17:26:31;100829.06;;;10.26;27.16
39051;BME280;24805;55.852;37.644;2023-05-08T17:31:33;100839.41;;;10.00;27.22
39051;BME280;24805;55.852;37.644;2023-05-08T17:36:35;100830.25;;;9.76;27.37
39051;BME280;24805;55.852;37.644;2023-05-08T17:41:37;100845.44;;;9.64;27.88
39051;BME280;24805;55.852;37.644;2023-05-08T17:46:40;100852.41;;;9.55;27.48
39051;BME280;24805;55.852;37.644;2023-05-08T17:51:42;100830.78;;;9.31;27.36
39051;BME280;24805;55.852;37.644;2023-05-08T17:56:44;100860.75;;;9.31;27.97
39051;BME280;24805;55.852;37.644;2023-05-08T18:01:46;100863.66;;;9.19;27.65
39051;BME280;24805;55.852;37.644;2023-05-08T18:06:49;100862.53;;;9.12;28.21
39051;BME280;24805;55.852;37.644;2023-05-08T18:11:52;100861.78;;;9.00;28.08
39051;BME280;24805;55.852;37.644;2023-05-08T18:16:57;100862.31;;;8.94;28.08
39051;BME280;24805;55.852;37.644;2023-05-08T18:21:59;100866.34;;;8.88;28.63
39051;BME280;24805;55.852;37.644;2023-05-08T18:27:01;100865.59;;;9.17;26.64
39051;BME280;24805;55.852;37.644;2023-05-08T18:32:03;100867.41;;;8.76;28.83
39051;BME280;24805;55.852;37.644;2023-05-08T18:37:05;100862.19;;;8.65;28.89
39051;BME280;24805;55.852;37.644;2023-05-08T18:42:07;100869.31;;;8.95;26.55
39051;BME280;24805;55.852;37.644;2023-05-08T18:47:09;100868.44;;;8.54;28.61
39051;BME280;24805;55.852;37.644;2023-05-08T18:52:11;100872.28;;;8.81;26.51
39051;BME280;24805;55.852;37.644;2023-05-08T18:57:15;100882.81;;;8.41;30.24
39051;BME280;24805;55.852;37.644;2023-05-08T19:02:17;100880.00;;;8.33;30.35
39051;BME280;24805;55.852;37.644;2023-05-08T19:07:19;100884.44;;;8.32;30.88
39051;BME280;24805;55.852;37.644;2023-05-08T19:12:22;100883.97;;;8.27;30.84
39051;BME280;24805;55.852;37.644;2023-05-08T19:17:24;100884.47;;;8.21;30.96
39051;BME280;24805;55.852;37.644;2023-05-08T19:22:26;100879.00;;;8.54;28.35
39051;BME280;24805;55.852;37.644;2023-05-08T19:27:28;100888.75;;;8.12;31.08
39051;BME280;24805;55.852;37.644;2023-05-08T19:32:32;100892.97;;;8.04;31.89
39051;BME280;24805;55.852;37.644;2023-05-08T19:37:34;100895.88;;;8.33;29.11
39051;BME280;24805;55.852;37.644;2023-05-08T19:42:37;100899.41;;;7.90;31.92
39051;BME280;24805;55.852;37.644;2023-05-08T19:47:39;100902.13;;;7.79;32.06
39051;BME280;24805;55.852;37.644;2023-05-08T19:52:41;100899.97;;;7.73;32.96
39051;BME280;24805;55.852;37.644;2023-05-08T19:57:43;100895.06;;;7.68;32.62
39051;BME280;24805;55.852;37.644;2023-05-08T20:02:45;100890.59;;;8.01;29.94
39051;BME280;24805;55.852;37.644;2023-05-08T20:07:47;100899.03;;;7.63;33.11
39051;BME280;24805;55.852;37.644;2023-05-08T20:12:49;100896.91;;;7.88;30.05
39051;BME280;24805;55.852;37.644;2023-05-08T20:17:51;100895.13;;;7.46;33.92
39051;BME280;24805;55.852;37.644;2023-05-08T20:22:55;100900.09;;;7.39;33.71
39051;BME280;24805;55.852;37.644;2023-05-08T20:27:57;100903.22;;;7.33;34.65
39051;BME280;24805;55.852;37.644;2023-05-08T20:32:59;100905.00;;;7.33;35.12
39051;BME280;24805;55.852;37.644;2023-05-08T20:38:06;100908.72;;;7.30;35.12
39051;BME280;24805;55.852;37.644;2023-05-08T20:43:08;100905.72;;;7.23;35.42
39051;BME280;24805;55.852;37.644;2023-05-08T20:48:11;100903.22;;;7.22;34.71
39051;BME280;24805;55.852;37.644;2023-05-08T20:53:13;100912.34;;;7.18;34.22
39051;BME280;24805;55.852;37.644;2023-05-08T20:58:15;100904.72;;;7.47;32.09
39051;BME280;24805;55.852;37.644;2023-05-08T21:03:17;100893.50;;;7.00;34.69
39051;BME280;24805;55.852;37.644;2023-05-08T21:08:22;100911.72;;;7.37;31.99
39051;BME280;24805;55.852;37.644;2023-05-08T21:13:24;100910.34;;;6.99;34.84
39051;BME280;24805;55.852;37.644;2023-05-08T21:18:27;100909.84;;;6.94;35.53
39051;BME280;24805;55.852;37.644;2023-05-08T21:23:29;100913.41;;;7.26;32.44
39051;BME280;24805;55.852;37.644;2023-05-08T21:28:34;100917.28;;;6.89;36.36
39051;BME280;24805;55.852;37.644;2023-05-08T21:33:36;100917.03;;;6.81;36.37
39051;BME280;24805;55.852;37.644;2023-05-08T21:38:38;100917.63;;;6.73;37.77
39051;BME280;24805;55.852;37.644;2023-05-08T21:43:40;100912.94;;;6.66;37.57
39051;BME280;24805;55.852;37.644;2023-05-08T21:48:42;100909.13;;;6.59;37.53
39051;BME280;24805;55.852;37.644;2023-05-08T21:53:44;100918.22;;;6.54;37.54
39051;BME280;24805;55.852;37.644;2023-05-08T21:58:47;100913.28;;;6.50;37.22
39051;BME280;24805;55.852;37.644;2023-05-08T22:03:49;100920.47;;;6.48;37.51
39051;BME280;24805;55.852;37.644;2023-05-08T22:08:52;100916.50;;;6.42;37.84
39051;BME280;24805;55.852;37.644;2023-05-08T22:13:54;100918.41;;;6.40;37.92
39051;BME280;24805;55.852;37.644;2023-05-08T22:18:56;100925.13;;;6.33;38.09
39051;BME280;24805;55.852;37.644;2023-05-08T22:23:58;100924.63;;;6.28;38.28
39051;BME280;24805;55.852;37.644;2023-05-08T22:29:00;100922.44;;;6.22;38.71
39051;BME280;24805;55.852;37.644;2023-05-08T22:34:02;100927.09;;;6.53;35.42
39051;BME280;24805;55.852;37.644;2023-05-08T22:39:05;100924.63;;;6.17;37.77
39051;BME280;24805;55.852;37.644;2023-05-08T22:44:07;100928.75;;;6.08;38.49
39051;BME280;24805;55.852;37.644;2023-05-08T22:49:10;100910.53;;;6.05;38.45
39051;BME280;24805;55.852;37.644;2023-05-08T22:54:12;100909.78;;;5.92;39.05
39051;BME280;24805;55.852;37.644;2023-05-08T22:59:14;100932.09;;;5.99;39.75
39051;BME280;24805;55.852;37.644;2023-05-08T23:04:16;100929.78;;;6.30;36.46
39051;BME280;24805;55.852;37.644;2023-05-08T23:09:18;100923.06;;;5.91;41.06
39051;BME280;24805;55.852;37.644;2023-05-08T23:14:20;100919.53;;;5.79;41.43
39051;BME280;24805;55.852;37.644;2023-05-08T23:19:22;100925.00;;;5.76;41.84
39051;BME280;24805;55.852;37.644;2023-05-08T23:24:24;100923.78;;;5.69;42.18
39051;BME280;24805;55.852;37.644;2023-05-08T23:29:27;100931.16;;;5.64;43.69
39051;BME280;24805;55.852;37.644;2023-05-08T23:34:29;100922.03;;;5.57;43.76
39051;BME280;24805;55.852;37.644;2023-05-08T23:39:31;100923.25;;;5.87;39.03
39051;BME280;24805;55.852;37.644;2023-05-08T23:44:38;100927.84;;;5.49;42.15
39051;BME280;24805;55.852;37.644;2023-05-08T23:49:40;100933.75;;;5.40;42.88
39051;BME280;24805;55.852;37.644;2023-05-08T23:54:42;100932.31;;;5.36;43.51
39051;BME280;24805;55.852;37.644;2023-05-08T23:59:44;100925.78;;;5.65;39.74
